Main page
METAR-TAF:

METAR-TAF

Airports :

Poços de Caldas, Minas Gerais, Brazil

latitude: 21-51S, longitude: 046-34W, elevation: 1260 m

Current weather observation

The report was made 6 hours and 21 minutes ago, at 20:00 UTC
Wind 5 kt from the East/Southeast
Temperature 22°C
Humidity 53%
Pressure 1024 hPa
Visibility 10 km or more
Few clouds at a height of 1500 ft
Broken clouds at a height of 8000 ft

METAR: SBPC 222000Z 11005KT 9999 FEW015 BKN080 22/12 Q1024

Time: 23:21 (02:21 UTC)


TAF: missing

Weather observations and forecasts of more than 4000 airports (METAR and TAF reports).

The available stations are represented by yellow and red dots on the map.

Hover mouse over dot to see the name of the station.

Then click to see weather observations and forecasts.

To change the map : click on the green buttons with a black cross to zoom in, on the green button with a dash to zoom out, or on the green arrows for adjacent maps.


METAR-TAF: